createdAt,value
2022-08-29T00:00:28.072Z,99.90
2022-08-29T00:02:57.384Z,99.90
2022-08-29T00:05:31.269Z,99.90
2022-08-29T00:07:59.722Z,99.90
2022-08-29T00:10:28.318Z,99.90
2022-08-29T00:12:57.810Z,99.90
2022-08-29T00:15:25.901Z,99.90
2022-08-29T00:17:52.793Z,99.90
2022-08-29T00:20:30.172Z,99.90
2022-08-29T00:23:01.928Z,99.90
2022-08-29T00:25:28.803Z,99.90
2022-08-29T00:27:55.571Z,99.90
2022-08-29T00:30:22.634Z,99.90
2022-08-29T00:32:49.771Z,99.90
2022-08-29T00:35:23.764Z,99.90
2022-08-29T00:37:52.149Z,99.90
2022-08-29T00:40:25.733Z,99.90
2022-08-29T00:42:52.740Z,99.90
2022-08-29T00:45:19.953Z,99.90
2022-08-29T00:47:54.411Z,99.90
2022-08-29T00:50:44.858Z,99.90
2022-08-29T00:53:16.060Z,99.90
2022-08-29T00:55:50.327Z,99.90
2022-08-29T00:58:39.695Z,99.90
2022-08-29T01:01:07.054Z,99.90
2022-08-29T01:03:36.667Z,99.90
2022-08-29T01:06:10.324Z,99.90
2022-08-29T01:08:37.206Z,99.90
2022-08-29T01:11:22.630Z,99.90
2022-08-29T01:13:52.899Z,99.90
2022-08-29T01:16:21.130Z,99.90
2022-08-29T01:18:53.323Z,99.90
2022-08-29T01:21:24.986Z,99.90
2022-08-29T01:24:04.260Z,99.90
2022-08-29T01:26:32.315Z,99.90
2022-08-29T01:28:59.315Z,99.90
2022-08-29T01:31:49.121Z,99.90
2022-08-29T01:34:22.845Z,99.90
2022-08-29T01:36:56.296Z,99.90
2022-08-29T01:39:28.768Z,99.90
2022-08-29T01:41:57.854Z,99.90
2022-08-29T01:44:27.947Z,99.90
2022-08-29T01:47:02.686Z,99.90
2022-08-29T01:49:34.935Z,99.90
2022-08-29T01:52:05.827Z,99.90
2022-08-29T01:54:34.260Z,99.90
2022-08-29T01:57:02.049Z,99.90
2022-08-29T01:59:30.493Z,99.90
2022-08-29T02:02:09.243Z,99.90
2022-08-29T02:04:36.209Z,99.90
2022-08-29T02:07:03.102Z,99.90
2022-08-29T02:09:30.895Z,99.90
2022-08-29T02:12:03.347Z,99.90
2022-08-29T02:14:30.471Z,99.90
2022-08-29T02:16:57.247Z,99.90
2022-08-29T02:19:24.072Z,99.90
2022-08-29T02:21:51.263Z,99.90
2022-08-29T02:24:26.355Z,99.90
2022-08-29T02:26:54.780Z,99.90
2022-08-29T02:29:21.618Z,99.90
2022-08-29T02:31:48.770Z,99.90
2022-08-29T02:34:15.846Z,99.90
2022-08-29T02:36:44.053Z,99.90
2022-08-29T02:39:11.897Z,99.90
2022-08-29T02:41:39.009Z,99.90
2022-08-29T02:44:06.488Z,99.90
2022-08-29T02:46:33.846Z,99.90
2022-08-29T02:49:01.490Z,99.90
2022-08-29T02:51:31.148Z,99.90
2022-08-29T02:53:58.466Z,99.90
2022-08-29T02:56:25.616Z,99.90
2022-08-29T02:58:52.669Z,99.90
2022-08-29T03:01:21.409Z,99.90
2022-08-29T03:03:50.357Z,99.90
2022-08-29T03:06:18.239Z,99.90
2022-08-29T03:08:45.170Z,99.90
2022-08-29T03:11:12.061Z,99.90
2022-08-29T03:13:38.874Z,99.90
2022-08-29T03:16:06.127Z,99.90
2022-08-29T03:18:33.093Z,99.90
2022-08-29T03:21:00.015Z,99.90
2022-08-29T03:23:27.140Z,99.90
2022-08-29T03:25:54.963Z,99.90
2022-08-29T03:28:21.939Z,99.90
2022-08-29T03:30:48.849Z,99.90
2022-08-29T03:33:15.686Z,99.90
2022-08-29T03:35:42.894Z,99.90
2022-08-29T03:38:09.814Z,99.90
2022-08-29T03:40:36.888Z,99.90
2022-08-29T03:43:03.827Z,99.90
2022-08-29T03:45:30.825Z,99.90
2022-08-29T03:47:57.695Z,99.90
2022-08-29T03:50:24.676Z,99.90
2022-08-29T03:52:51.951Z,99.90
2022-08-29T03:55:20.124Z,99.90
2022-08-29T03:57:47.360Z,99.90
2022-08-29T04:00:17.878Z,99.90
2022-08-29T04:02:46.883Z,99.90
2022-08-29T04:05:16.115Z,99.90
2022-08-29T04:07:42.882Z,99.90
2022-08-29T04:10:12.136Z,99.90
2022-08-29T04:12:39.218Z,99.90
2022-08-29T04:15:06.937Z,99.90
2022-08-29T04:17:34.482Z,99.90
2022-08-29T04:20:01.575Z,99.90
2022-08-29T04:22:28.363Z,99.90
2022-08-29T04:24:55.139Z,99.90
2022-08-29T04:27:21.948Z,99.90
2022-08-29T04:29:48.703Z,99.90
2022-08-29T04:32:16.630Z,99.90
2022-08-29T04:34:43.629Z,99.90
2022-08-29T04:37:10.567Z,99.90
2022-08-29T04:39:37.974Z,99.90
2022-08-29T04:42:05.116Z,99.90
2022-08-29T04:44:32.402Z,99.90
2022-08-29T04:46:59.205Z,99.90
2022-08-29T04:49:26.083Z,99.90
2022-08-29T04:51:53.894Z,99.90
2022-08-29T04:54:20.785Z,99.90
2022-08-29T04:56:47.713Z,99.90
2022-08-29T04:59:16.358Z,99.90
2022-08-29T05:01:43.593Z,99.90
2022-08-29T05:04:14.306Z,99.90
2022-08-29T05:06:41.971Z,99.90
2022-08-29T05:09:08.814Z,99.90
2022-08-29T05:11:35.657Z,99.90
2022-08-29T05:14:02.705Z,99.90
2022-08-29T05:16:30.602Z,99.90
2022-08-29T05:18:58.687Z,99.90
2022-08-29T05:21:28.184Z,99.90
2022-08-29T05:23:56.600Z,99.90
2022-08-29T05:26:24.026Z,99.90
2022-08-29T05:28:51.506Z,99.90
2022-08-29T05:31:18.668Z,99.90
2022-08-29T05:33:45.440Z,99.90
2022-08-29T05:36:12.524Z,99.90
2022-08-29T05:38:39.294Z,99.90
2022-08-29T05:41:07.464Z,99.90
2022-08-29T05:43:35.468Z,99.90
2022-08-29T05:46:04.519Z,99.90
2022-08-29T05:48:32.321Z,99.90
2022-08-29T05:50:59.889Z,99.90
2022-08-29T05:53:27.663Z,99.90
2022-08-29T05:55:55.978Z,99.90
2022-08-29T05:58:22.785Z,99.90
2022-08-29T06:00:49.710Z,99.90
2022-08-29T06:03:16.635Z,99.90
2022-08-29T06:05:43.780Z,99.90
2022-08-29T06:08:10.620Z,99.90
2022-08-29T06:10:42.142Z,99.90
2022-08-29T06:13:09.087Z,99.90
2022-08-29T06:15:36.117Z,99.90
2022-08-29T06:18:03.740Z,99.90
2022-08-29T06:20:31.146Z,99.90
2022-08-29T06:22:57.996Z,99.90
2022-08-29T06:25:40.572Z,99.90
2022-08-29T06:28:08.365Z,99.90
2022-08-29T06:30:35.316Z,99.90
2022-08-29T06:33:02.694Z,99.90
2022-08-29T06:35:30.001Z,99.90
2022-08-29T06:37:56.739Z,99.90
2022-08-29T06:40:23.682Z,99.90
2022-08-29T06:42:50.575Z,99.90
2022-08-29T06:45:17.582Z,95.80
2022-08-29T06:47:47.564Z,96.40
2022-08-29T06:50:15.815Z,98.20
2022-08-29T06:52:42.670Z,96.60
2022-08-29T06:55:13.638Z,98.70
2022-08-29T06:57:45.355Z,99.90
2022-08-29T07:00:21.827Z,99.70
2022-08-29T07:02:51.864Z,93.80
2022-08-29T07:05:20.787Z,92.30
2022-08-29T07:07:47.696Z,93.90
2022-08-29T07:10:18.684Z,92.00
2022-08-29T07:12:48.346Z,91.30
2022-08-29T07:15:15.428Z,89.80
2022-08-29T07:17:42.573Z,80.50
2022-08-29T07:20:10.185Z,78.80
2022-08-29T07:22:37.291Z,81.00
2022-08-29T07:25:04.347Z,81.20
2022-08-29T07:27:31.855Z,79.30
2022-08-29T07:30:02.570Z,75.20
2022-08-29T07:32:30.138Z,75.50
2022-08-29T07:34:56.926Z,68.20
2022-08-29T07:37:24.501Z,70.30
2022-08-29T07:39:51.487Z,71.80
2022-08-29T07:42:18.252Z,70.00
2022-08-29T07:44:44.998Z,63.20
2022-08-29T07:47:11.831Z,65.00
2022-08-29T07:49:41.563Z,58.50
2022-08-29T07:52:08.861Z,58.80
2022-08-29T07:54:35.762Z,59.80
2022-08-29T07:57:02.558Z,60.30
2022-08-29T07:59:31.310Z,57.60
2022-08-29T08:01:58.109Z,50.60
2022-08-29T08:04:26.116Z,52.90
2022-08-29T08:06:52.953Z,49.70
2022-08-29T08:09:19.742Z,53.80
2022-08-29T08:11:46.760Z,48.60
2022-08-29T08:14:13.867Z,49.10
2022-08-29T08:16:44.339Z,53.00
2022-08-29T08:19:13.724Z,53.00
2022-08-29T08:21:49.049Z,49.80
2022-08-29T08:24:19.539Z,50.20
2022-08-29T08:26:47.209Z,49.20
2022-08-29T08:29:14.038Z,48.40
2022-08-29T08:31:46.018Z,45.90
2022-08-29T08:34:15.708Z,43.40
2022-08-29T08:36:44.883Z,43.40
2022-08-29T08:39:13.285Z,44.40
2022-08-29T08:41:49.982Z,43.00
2022-08-29T08:44:22.554Z,43.30
2022-08-29T08:46:52.552Z,43.20
2022-08-29T08:49:25.748Z,42.40
2022-08-29T08:51:58.582Z,44.40
2022-08-29T08:54:28.214Z,42.30
2022-08-29T08:57:03.267Z,42.00
2022-08-29T08:59:43.529Z,38.00
2022-08-29T09:02:28.490Z,38.70
2022-08-29T09:05:34.196Z,41.60
2022-08-29T09:08:29.267Z,39.10
2022-08-29T09:11:29.858Z,37.00
2022-08-29T09:14:28.392Z,37.30
2022-08-29T09:16:58.793Z,36.30
2022-08-29T09:19:26.467Z,36.30
2022-08-29T09:21:59.876Z,35.70
2022-08-29T09:24:49.964Z,36.00
2022-08-29T09:27:22.835Z,33.40
2022-08-29T09:30:04.681Z,34.00
2022-08-29T09:32:32.040Z,34.70
2022-08-29T09:35:15.200Z,34.50
2022-08-29T09:37:42.008Z,33.00
2022-08-29T09:40:16.553Z,33.20
2022-08-29T09:43:01.459Z,34.40
2022-08-29T09:45:28.692Z,34.50
2022-08-29T09:48:14.442Z,34.10
2022-08-29T09:50:41.453Z,35.60
2022-08-29T09:53:24.721Z,33.60
2022-08-29T09:55:52.619Z,34.80
2022-08-29T09:58:20.008Z,33.30
2022-08-29T10:01:26.957Z,31.30
2022-08-29T10:04:02.530Z,33.80
2022-08-29T10:06:45.261Z,31.40
2022-08-29T10:09:26.705Z,30.30
2022-08-29T10:12:03.592Z,28.70
2022-08-29T10:14:38.635Z,28.10
2022-08-29T10:17:57.124Z,28.00
2022-08-29T10:20:33.891Z,29.30
2022-08-29T10:23:14.185Z,27.60
2022-08-29T10:25:41.642Z,22.20
2022-08-29T10:28:28.481Z,23.70
2022-08-29T10:31:26.212Z,24.20
2022-08-29T10:34:12.456Z,20.80
2022-08-29T10:36:41.121Z,22.40
2022-08-29T10:39:28.902Z,22.40
2022-08-29T10:42:19.502Z,24.00
2022-08-29T10:45:15.581Z,20.50
2022-08-29T10:47:56.815Z,22.00
2022-08-29T10:50:49.673Z,24.20
2022-08-29T10:53:21.058Z,21.10
2022-08-29T10:56:04.426Z,19.20
2022-08-29T10:59:00.660Z,20.70
2022-08-29T11:01:30.811Z,17.10
2022-08-29T11:04:23.966Z,15.60
2022-08-29T11:07:17.799Z,15.70
2022-08-29T11:10:01.026Z,17.80
2022-08-29T11:12:46.295Z,16.20
2022-08-29T11:15:26.372Z,15.00
2022-08-29T11:18:01.875Z,13.10
2022-08-29T11:20:38.714Z,11.60
2022-08-29T11:23:27.602Z,11.70
2022-08-29T11:25:56.556Z,11.40
2022-08-29T11:28:35.054Z,12.30
2022-08-29T11:31:24.673Z,12.50
2022-08-29T11:34:18.044Z,11.40
2022-08-29T11:37:14.447Z,11.80
2022-08-29T11:39:57.196Z,11.50
2022-08-29T11:45:35.620Z,8.80
2022-08-29T11:48:18.342Z,9.00
2022-08-29T11:50:45.978Z,11.30
2022-08-29T11:53:33.859Z,12.70
2022-08-29T11:56:13.066Z,9.20
2022-08-29T11:58:46.343Z,9.20
2022-08-29T12:01:25.258Z,5.70
2022-08-29T12:03:54.278Z,6.50
2022-08-29T12:06:46.080Z,9.10
2022-08-29T12:09:13.835Z,8.80
2022-08-29T12:11:59.337Z,5.50
2022-08-29T12:14:37.965Z,6.30
2022-08-29T12:17:51.189Z,6.30
2022-08-29T12:20:47.589Z,7.10
2022-08-29T12:23:14.432Z,8.90
2022-08-29T12:25:44.908Z,7.10
2022-08-29T12:28:27.943Z,6.60
2022-08-29T12:31:07.056Z,7.20
2022-08-29T12:34:13.159Z,5.80
2022-08-29T12:37:13.936Z,7.00
2022-08-29T12:40:21.424Z,5.00
2022-08-29T12:43:07.020Z,5.00
2022-08-29T12:45:36.286Z,5.00
2022-08-29T12:48:11.473Z,5.00
2022-08-29T12:50:45.190Z,5.00
2022-08-29T12:53:34.857Z,5.00
2022-08-29T12:56:18.316Z,5.00
2022-08-29T12:58:54.688Z,5.00
2022-08-29T13:01:33.321Z,5.00
2022-08-29T13:04:05.010Z,5.00
2022-08-29T13:06:33.492Z,5.00
2022-08-29T13:09:00.831Z,5.00
2022-08-29T13:11:30.283Z,5.00
2022-08-29T13:14:08.909Z,5.00
2022-08-29T13:16:35.737Z,5.00
2022-08-29T13:19:14.124Z,5.00
2022-08-29T13:21:40.993Z,5.00
2022-08-29T13:24:19.583Z,5.00
2022-08-29T13:27:04.195Z,5.00
2022-08-29T13:29:42.225Z,5.00
2022-08-29T13:32:23.178Z,5.00
2022-08-29T13:35:20.612Z,5.00
2022-08-29T13:38:18.074Z,5.00
2022-08-29T13:40:49.877Z,5.00
2022-08-29T13:43:43.312Z,5.00
2022-08-29T13:46:15.082Z,5.00
2022-08-29T13:48:42.815Z,5.00
2022-08-29T13:51:09.889Z,5.00
2022-08-29T13:53:37.532Z,5.00
2022-08-29T13:56:04.753Z,5.00
2022-08-29T13:58:32.414Z,5.00
2022-08-29T14:00:59.276Z,5.00
2022-08-29T14:03:26.478Z,5.00
2022-08-29T14:05:56.423Z,5.00
2022-08-29T14:08:24.548Z,5.00
2022-08-29T14:10:52.043Z,5.00
2022-08-29T14:13:18.829Z,5.00
2022-08-29T14:15:45.867Z,5.00
2022-08-29T14:18:12.898Z,5.00
2022-08-29T14:20:39.883Z,5.00
2022-08-29T14:23:07.122Z,5.00
2022-08-29T14:25:33.934Z,5.00
2022-08-29T14:28:00.793Z,5.00
2022-08-29T14:30:27.687Z,5.00
2022-08-29T14:32:54.513Z,5.00
2022-08-29T14:35:25.850Z,5.00
2022-08-29T14:37:54.248Z,5.00
2022-08-29T14:40:22.099Z,5.00
2022-08-29T14:42:49.246Z,5.00
2022-08-29T14:45:16.142Z,5.00
2022-08-29T14:47:45.403Z,5.00
2022-08-29T14:50:14.174Z,5.00
2022-08-29T14:52:42.349Z,5.00
2022-08-29T14:55:10.959Z,5.00
2022-08-29T14:57:38.149Z,5.00
2022-08-29T15:00:09.829Z,5.00
2022-08-29T15:02:36.656Z,5.00
2022-08-29T15:05:03.658Z,5.00
2022-08-29T15:07:30.485Z,5.00
2022-08-29T15:09:57.508Z,5.00
2022-08-29T15:12:27.855Z,5.00
2022-08-29T15:14:55.643Z,5.00
2022-08-29T15:17:23.619Z,5.00
2022-08-29T15:20:34.346Z,5.00
2022-08-29T15:22:38.038Z,5.00
2022-08-29T15:25:05.726Z,5.00
2022-08-29T15:27:33.104Z,5.00
2022-08-29T15:29:59.968Z,5.00
2022-08-29T15:32:26.773Z,5.00
2022-08-29T15:34:53.896Z,5.00
2022-08-29T15:37:20.715Z,5.00
2022-08-29T15:39:49.886Z,5.00
2022-08-29T15:42:28.627Z,5.00
2022-08-29T15:44:56.124Z,5.00
2022-08-29T15:47:26.218Z,5.00
2022-08-29T15:49:53.666Z,5.00
2022-08-29T15:52:20.764Z,5.00
2022-08-29T15:54:47.540Z,5.00
2022-08-29T15:57:14.366Z,5.00
2022-08-29T15:59:57.670Z,5.00
2022-08-29T16:02:26.417Z,5.00
2022-08-29T16:04:56.905Z,5.00
2022-08-29T16:07:29.237Z,5.00
2022-08-29T16:10:05.764Z,5.00
2022-08-29T16:12:38.134Z,5.00
2022-08-29T16:15:09.604Z,5.00
2022-08-29T16:17:37.272Z,5.00
2022-08-29T16:20:06.430Z,5.00
2022-08-29T16:22:34.004Z,5.00
2022-08-29T16:25:01.444Z,5.00
2022-08-29T16:27:28.356Z,5.00
2022-08-29T16:29:56.582Z,5.00
2022-08-29T16:32:23.882Z,5.00
2022-08-29T16:34:51.666Z,5.00
2022-08-29T16:37:18.985Z,5.00
2022-08-29T16:39:45.863Z,5.00
2022-08-29T16:42:12.603Z,5.00
2022-08-29T16:44:40.284Z,5.00
2022-08-29T16:47:07.337Z,5.00
2022-08-29T16:49:34.237Z,5.00
2022-08-29T16:52:01.157Z,5.00
2022-08-29T16:54:28.555Z,5.00
2022-08-29T16:56:57.104Z,5.00
2022-08-29T16:59:24.235Z,5.00
2022-08-29T17:01:54.055Z,5.00
2022-08-29T17:04:25.077Z,5.00
2022-08-29T17:06:52.446Z,5.00
2022-08-29T17:09:21.365Z,5.00
2022-08-29T17:11:49.216Z,5.00
2022-08-29T17:14:18.133Z,5.30
2022-08-29T17:16:47.125Z,6.30
2022-08-29T17:19:15.624Z,7.20
2022-08-29T17:21:43.106Z,8.40
2022-08-29T17:24:11.043Z,9.50
2022-08-29T17:26:41.013Z,10.20
2022-08-29T17:29:09.337Z,10.10
2022-08-29T17:31:38.927Z,10.60
2022-08-29T17:34:07.915Z,10.90
2022-08-29T17:36:36.693Z,12.60
2022-08-29T17:39:05.335Z,12.60
2022-08-29T17:41:37.414Z,13.30
2022-08-29T17:44:06.677Z,13.60
2022-08-29T17:46:33.513Z,14.00
2022-08-29T17:49:04.265Z,14.50
2022-08-29T17:51:33.986Z,14.40
2022-08-29T17:54:00.886Z,15.20
2022-08-29T17:56:38.672Z,15.50
2022-08-29T17:59:12.807Z,15.30
2022-08-29T18:01:39.913Z,17.60
2022-08-29T18:04:06.776Z,16.70
2022-08-29T18:06:33.755Z,18.10
2022-08-29T18:09:00.675Z,18.70
2022-08-29T18:11:27.604Z,19.10
2022-08-29T18:13:55.286Z,20.10
2022-08-29T18:16:22.185Z,19.80
2022-08-29T18:18:49.278Z,20.30
2022-08-29T18:21:18.623Z,20.80
2022-08-29T18:23:45.933Z,21.60
2022-08-29T18:26:13.920Z,22.00
2022-08-29T18:28:42.186Z,23.90
2022-08-29T18:31:09.700Z,23.70
2022-08-29T18:33:57.281Z,24.20
2022-08-29T18:36:25.977Z,24.60
2022-08-29T18:38:53.157Z,24.80
2022-08-29T18:41:20.040Z,24.70
2022-08-29T18:43:47.295Z,25.20
2022-08-29T18:46:14.249Z,25.40
2022-08-29T18:48:43.220Z,26.40
2022-08-29T18:51:10.372Z,27.50
2022-08-29T18:53:39.387Z,28.10
2022-08-29T18:56:07.129Z,27.60
2022-08-29T18:58:35.969Z,28.70
2022-08-29T19:01:26.934Z,29.50
2022-08-29T19:03:56.774Z,29.40
2022-08-29T19:06:25.881Z,29.70
2022-08-29T19:08:56.990Z,30.90
2022-08-29T19:11:24.599Z,31.20
2022-08-29T19:13:52.243Z,31.30
2022-08-29T19:16:20.786Z,31.70
2022-08-29T19:18:47.830Z,32.20
2022-08-29T19:21:14.646Z,33.00
2022-08-29T19:23:44.404Z,32.30
2022-08-29T19:26:20.176Z,33.80
2022-08-29T19:28:47.045Z,34.60
2022-08-29T19:31:16.372Z,33.30
2022-08-29T19:33:45.037Z,34.80
2022-08-29T19:36:12.063Z,35.50
2022-08-29T19:38:41.327Z,35.30
2022-08-29T19:41:15.585Z,35.20
2022-08-29T19:43:42.762Z,36.20
2022-08-29T19:46:22.082Z,35.20
2022-08-29T19:48:51.201Z,36.20
2022-08-29T19:51:19.809Z,36.40
2022-08-29T19:53:48.464Z,37.10
2022-08-29T19:56:15.315Z,37.50
2022-08-29T19:58:42.728Z,37.60
2022-08-29T20:01:10.374Z,38.00
2022-08-29T20:03:39.394Z,38.40
2022-08-29T20:06:06.989Z,38.80
2022-08-29T20:08:39.776Z,38.80
2022-08-29T20:11:06.802Z,37.80
2022-08-29T20:13:35.753Z,37.40
2022-08-29T20:16:10.147Z,39.10
2022-08-29T20:18:39.769Z,38.30
2022-08-29T20:21:07.016Z,39.20
2022-08-29T20:23:33.798Z,39.40
2022-08-29T20:26:01.628Z,41.00
2022-08-29T20:28:30.517Z,41.00
2022-08-29T20:30:58.098Z,41.00
2022-08-29T20:33:25.881Z,41.70
2022-08-29T20:36:11.634Z,41.80
2022-08-29T20:38:38.488Z,42.60
2022-08-29T20:41:05.524Z,42.80
2022-08-29T20:43:32.467Z,42.80
2022-08-29T20:45:59.979Z,42.50
2022-08-29T20:48:31.280Z,43.20
2022-08-29T20:51:04.582Z,43.50
2022-08-29T20:53:33.182Z,43.40
2022-08-29T20:56:01.211Z,43.60
2022-08-29T20:58:30.176Z,43.60
2022-08-29T21:00:58.393Z,43.70
2022-08-29T21:03:44.289Z,44.20
2022-08-29T21:06:11.268Z,45.00
2022-08-29T21:08:39.842Z,45.10
2022-08-29T21:11:06.769Z,46.00
2022-08-29T21:13:33.564Z,46.10
2022-08-29T21:16:01.400Z,46.30
2022-08-29T21:18:28.205Z,46.10
2022-08-29T21:20:55.404Z,46.50
2022-08-29T21:23:24.560Z,46.60
2022-08-29T21:25:56.918Z,46.70
2022-08-29T21:28:25.495Z,47.00
2022-08-29T21:30:52.945Z,47.70
2022-08-29T21:33:20.351Z,48.60
2022-08-29T21:35:49.981Z,48.80
2022-08-29T21:38:17.557Z,49.00
2022-08-29T21:40:51.048Z,50.60
2022-08-29T21:43:19.307Z,51.00
2022-08-29T21:45:46.496Z,52.00
2022-08-29T21:48:13.528Z,52.20
2022-08-29T21:50:40.320Z,53.30
2022-08-29T21:53:08.721Z,53.40
2022-08-29T21:55:35.584Z,54.10
2022-08-29T21:58:02.467Z,54.10
2022-08-29T22:00:32.616Z,53.10
2022-08-29T22:03:06.589Z,54.00
2022-08-29T22:05:33.713Z,53.90
2022-08-29T22:08:03.235Z,53.60
2022-08-29T22:10:34.074Z,53.10
2022-08-29T22:13:02.499Z,54.30
2022-08-29T22:15:48.204Z,54.60
2022-08-29T22:18:15.601Z,55.00
2022-08-29T22:20:44.119Z,55.10
2022-08-29T22:23:11.238Z,55.40
2022-08-29T22:25:38.023Z,54.80
2022-08-29T22:28:05.309Z,55.20
2022-08-29T22:30:32.718Z,55.10
2022-08-29T22:33:01.053Z,55.30
2022-08-29T22:35:28.572Z,55.20
2022-08-29T22:37:55.780Z,55.30
2022-08-29T22:40:23.547Z,56.00
2022-08-29T22:42:50.677Z,56.30
2022-08-29T22:45:18.437Z,57.50
2022-08-29T22:47:46.626Z,59.40
2022-08-29T22:50:18.853Z,58.90
2022-08-29T22:52:46.175Z,60.10
2022-08-29T22:55:15.421Z,63.30
2022-08-29T22:57:45.196Z,64.20
2022-08-29T23:00:17.380Z,65.90
2022-08-29T23:02:44.199Z,67.60
2022-08-29T23:05:11.728Z,68.40
2022-08-29T23:07:38.732Z,68.50
2022-08-29T23:10:08.073Z,68.30
2022-08-29T23:12:39.040Z,68.90
2022-08-29T23:15:09.992Z,69.80
2022-08-29T23:17:36.991Z,69.90
2022-08-29T23:20:06.068Z,69.80
2022-08-29T23:22:33.401Z,70.20
2022-08-29T23:25:00.530Z,69.60
2022-08-29T23:27:29.109Z,69.40
2022-08-29T23:29:56.406Z,68.90
2022-08-29T23:32:23.298Z,69.30
2022-08-29T23:34:50.125Z,68.50
2022-08-29T23:37:16.950Z,68.60
2022-08-29T23:39:43.812Z,68.10
2022-08-29T23:42:10.605Z,68.50
2022-08-29T23:44:37.412Z,68.50
2022-08-29T23:47:04.447Z,67.90
2022-08-29T23:49:31.462Z,68.50
2022-08-29T23:51:59.164Z,70.80
2022-08-29T23:54:26.146Z,76.10
2022-08-29T23:56:53.537Z,85.70
2022-08-29T23:59:38.987Z,87.80
